This is the latest recevied weather packets stored in our database for station/object YO2MAS-13. If no packets are shown the sender has not sent any weather packets the latest 10 day(s).
| Time | Temp. | Humidity | Pressure | Rain* | Wind** | Luminosity | Snow |
|---|---|---|---|---|---|---|---|
| 1777844743 | 13.89° C | 79% | 1022.5 hPa | - | - | - | - |
| 1777843906 | 14.44° C | 80% | 1022.4 hPa | - | - | - | - |
| 1777843846 | 14.44° C | 80% | 1022.4 hPa | - | - | - | - |
| 1777842943 | 14.44° C | 83% | 1022.3 hPa | - | - | - | - |
| 1777842043 | 15° C | 74% | 1022.4 hPa | - | - | - | - |
| 1777841181 | 15° C | 66% | 1022.3 hPa | - | - | - | - |
| 1777841144 | 15° C | 66% | 1022.3 hPa | - | - | - | - |
| 1777840244 | 15.56° C | 67% | 1022.3 hPa | - | - | - | - |
| 1777839340 | 15.56° C | 70% | 1022.3 hPa | - | - | - | - |
| 1777838440 | 15.56° C | 64% | 1022.2 hPa | - | - | - | - |
| 1777838268 | 16.67° C | 10% | - | - | - | - | - |
| 1777837541 | 16.67° C | 10% | - | - | - | - | - |
| 1777836782 | 16.11° C | 57% | 1022.2 hPa | - | - | - | - |
| 1777836640 | 16.11° C | 57% | 1022.2 hPa | - | - | - | - |
| 1777835740 | 17.22° C | 48% | 1022.1 hPa | - | - | - | - |
| 1777834840 | 19.44° C | 43% | 1021.8 hPa | - | - | - | - |
| 1777834027 | 19.44° C | 42% | 1021.8 hPa | - | - | - | - |
| 1777833940 | 19.44° C | 42% | 1021.8 hPa | - | - | - | - |
| 1777833041 | 19.44° C | 40% | 1021.6 hPa | - | - | - | - |
| 1777832141 | 20.56° C | 41% | 1021.5 hPa | - | - | - | - |
| 1777831240 | 20.56° C | 41% | 1021.3 hPa | - | - | - | - |
| 1777830340 | 21.11° C | 39% | 1021.3 hPa | - | - | - | - |
| 1777829443 | 22.78° C | 36% | 1021.1 hPa | - | - | - | - |
| 1777828540 | 23.33° C | 36% | 1021.1 hPa | - | - | - | - |
| 1777827640 | 22.78° C | 35% | 1021.1 hPa | - | - | - | - |
* Rain since midnight (hover to see other rain measurements)
** Current wind speed in m/s (hover to see current wind gust speed)